sensor_id;sensor_type;location;lat;lon;timestamp;P1;durP1;ratioP1;P2;durP2;ratioP2
67528;SDS011;54366;51.980;5.856;2023-11-18T00:01:24;19.15;;;15.30;;
67528;SDS011;54366;51.980;5.856;2023-11-18T00:03:51;19.75;;;14.48;;
67528;SDS011;54366;51.980;5.856;2023-11-18T00:06:17;16.60;;;12.27;;
67528;SDS011;54366;51.980;5.856;2023-11-18T00:08:43;18.05;;;14.40;;
67528;SDS011;54366;51.980;5.856;2023-11-18T00:11:10;17.20;;;14.02;;
67528;SDS011;54366;51.980;5.856;2023-11-18T00:13:37;18.50;;;14.15;;
67528;SDS011;54366;51.980;5.856;2023-11-18T00:16:05;19.90;;;14.98;;
67528;SDS011;54366;51.980;5.856;2023-11-18T00:18:32;19.83;;;15.48;;
67528;SDS011;54366;51.980;5.856;2023-11-18T00:20:58;18.27;;;14.48;;
67528;SDS011;54366;51.980;5.856;2023-11-18T00:23:25;17.38;;;13.95;;
67528;SDS011;54366;51.980;5.856;2023-11-18T00:25:52;18.77;;;14.27;;
67528;SDS011;54366;51.980;5.856;2023-11-18T00:28:18;19.05;;;14.60;;
67528;SDS011;54366;51.980;5.856;2023-11-18T00:30:46;18.20;;;14.70;;
67528;SDS011;54366;51.980;5.856;2023-11-18T00:33:12;18.92;;;14.23;;
67528;SDS011;54366;51.980;5.856;2023-11-18T00:35:38;19.00;;;15.18;;
67528;SDS011;54366;51.980;5.856;2023-11-18T00:38:06;20.70;;;15.65;;
67528;SDS011;54366;51.980;5.856;2023-11-18T00:40:32;19.40;;;14.98;;
67528;SDS011;54366;51.980;5.856;2023-11-18T00:42:59;18.63;;;15.18;;
67528;SDS011;54366;51.980;5.856;2023-11-18T00:45:25;19.40;;;14.57;;
67528;SDS011;54366;51.980;5.856;2023-11-18T00:47:52;21.30;;;15.45;;
67528;SDS011;54366;51.980;5.856;2023-11-18T00:50:20;19.35;;;14.88;;
67528;SDS011;54366;51.980;5.856;2023-11-18T00:52:46;20.80;;;15.32;;
67528;SDS011;54366;51.980;5.856;2023-11-18T00:55:14;20.55;;;15.55;;
67528;SDS011;54366;51.980;5.856;2023-11-18T00:57:40;20.73;;;15.90;;
67528;SDS011;54366;51.980;5.856;2023-11-18T01:00:07;20.77;;;15.82;;
67528;SDS011;54366;51.980;5.856;2023-11-18T01:02:43;21.58;;;15.15;;
67528;SDS011;54366;51.980;5.856;2023-11-18T01:05:09;20.83;;;16.08;;
67528;SDS011;54366;51.980;5.856;2023-11-18T01:07:37;20.08;;;15.82;;
67528;SDS011;54366;51.980;5.856;2023-11-18T01:10:04;18.92;;;14.88;;
67528;SDS011;54366;51.980;5.856;2023-11-18T01:12:32;19.27;;;14.43;;
67528;SDS011;54366;51.980;5.856;2023-11-18T01:14:59;17.55;;;14.90;;
67528;SDS011;54366;51.980;5.856;2023-11-18T01:17:25;19.02;;;15.48;;
67528;SDS011;54366;51.980;5.856;2023-11-18T01:19:52;19.15;;;15.63;;
67528;SDS011;54366;51.980;5.856;2023-11-18T01:22:19;20.83;;;16.58;;
67528;SDS011;54366;51.980;5.856;2023-11-18T01:24:45;20.70;;;15.77;;
67528;SDS011;54366;51.980;5.856;2023-11-18T01:27:11;20.73;;;16.17;;
67528;SDS011;54366;51.980;5.856;2023-11-18T01:29:38;20.70;;;16.50;;
67528;SDS011;54366;51.980;5.856;2023-11-18T01:32:06;20.17;;;15.30;;
67528;SDS011;54366;51.980;5.856;2023-11-18T01:34:35;19.23;;;15.23;;
67528;SDS011;54366;51.980;5.856;2023-11-18T01:37:04;17.83;;;14.85;;
67528;SDS011;54366;51.980;5.856;2023-11-18T01:39:35;19.55;;;14.98;;
67528;SDS011;54366;51.980;5.856;2023-11-18T01:42:02;19.95;;;15.93;;
67528;SDS011;54366;51.980;5.856;2023-11-18T01:44:30;19.92;;;15.93;;
67528;SDS011;54366;51.980;5.856;2023-11-18T01:47:00;19.42;;;15.65;;
67528;SDS011;54366;51.980;5.856;2023-11-18T01:49:31;18.05;;;14.75;;
67528;SDS011;54366;51.980;5.856;2023-11-18T01:52:02;20.05;;;14.57;;
67528;SDS011;54366;51.980;5.856;2023-11-18T01:54:29;15.65;;;12.93;;
67528;SDS011;54366;51.980;5.856;2023-11-18T01:56:57;16.63;;;12.52;;
67528;SDS011;54366;51.980;5.856;2023-11-18T01:59:26;13.18;;;11.50;;
67528;SDS011;54366;51.980;5.856;2023-11-18T02:01:55;12.65;;;11.07;;
67528;SDS011;54366;51.980;5.856;2023-11-18T02:04:25;15.80;;;12.15;;
67528;SDS011;54366;51.980;5.856;2023-11-18T02:06:52;14.98;;;12.32;;
67528;SDS011;54366;51.980;5.856;2023-11-18T02:09:19;14.93;;;12.05;;
67528;SDS011;54366;51.980;5.856;2023-11-18T02:11:57;15.98;;;13.13;;
67528;SDS011;54366;51.980;5.856;2023-11-18T02:14:39;16.88;;;12.88;;
67528;SDS011;54366;51.980;5.856;2023-11-18T02:17:06;14.70;;;11.93;;
67528;SDS011;54366;51.980;5.856;2023-11-18T02:19:38;15.23;;;11.65;;
67528;SDS011;54366;51.980;5.856;2023-11-18T02:22:06;13.63;;;10.73;;
67528;SDS011;54366;51.980;5.856;2023-11-18T02:24:34;16.58;;;13.55;;
67528;SDS011;54366;51.980;5.856;2023-11-18T02:27:03;15.20;;;12.13;;
67528;SDS011;54366;51.980;5.856;2023-11-18T02:29:34;16.63;;;12.25;;
67528;SDS011;54366;51.980;5.856;2023-11-18T02:35:09;16.48;;;12.63;;
67528;SDS011;54366;51.980;5.856;2023-11-18T02:37:57;18.02;;;12.57;;
67528;SDS011;54366;51.980;5.856;2023-11-18T02:40:27;17.05;;;13.13;;
67528;SDS011;54366;51.980;5.856;2023-11-18T02:43:09;17.45;;;13.18;;
67528;SDS011;54366;51.980;5.856;2023-11-18T02:45:36;16.58;;;12.65;;
67528;SDS011;54366;51.980;5.856;2023-11-18T02:48:04;17.67;;;13.25;;
67528;SDS011;54366;51.980;5.856;2023-11-18T02:50:32;17.45;;;13.45;;
67528;SDS011;54366;51.980;5.856;2023-11-18T02:53:01;19.10;;;14.32;;
67528;SDS011;54366;51.980;5.856;2023-11-18T02:55:28;18.02;;;13.52;;
67528;SDS011;54366;51.980;5.856;2023-11-18T02:57:54;17.77;;;13.23;;
67528;SDS011;54366;51.980;5.856;2023-11-18T03:00:21;16.80;;;13.45;;
67528;SDS011;54366;51.980;5.856;2023-11-18T03:02:48;16.52;;;13.35;;
67528;SDS011;54366;51.980;5.856;2023-11-18T03:05:20;18.40;;;14.40;;
67528;SDS011;54366;51.980;5.856;2023-11-18T03:07:47;20.40;;;15.48;;
67528;SDS011;54366;51.980;5.856;2023-11-18T03:10:21;18.83;;;14.27;;
67528;SDS011;54366;51.980;5.856;2023-11-18T03:12:48;17.50;;;13.23;;
67528;SDS011;54366;51.980;5.856;2023-11-18T03:15:15;17.67;;;13.63;;
67528;SDS011;54366;51.980;5.856;2023-11-18T03:17:46;21.77;;;14.63;;
67528;SDS011;54366;51.980;5.856;2023-11-18T03:20:14;22.10;;;15.90;;
67528;SDS011;54366;51.980;5.856;2023-11-18T03:22:45;19.33;;;14.55;;
67528;SDS011;54366;51.980;5.856;2023-11-18T03:25:13;24.00;;;15.85;;
67528;SDS011;54366;51.980;5.856;2023-11-18T03:27:39;22.00;;;15.48;;
67528;SDS011;54366;51.980;5.856;2023-11-18T03:30:06;19.95;;;13.50;;
67528;SDS011;54366;51.980;5.856;2023-11-18T03:32:37;20.83;;;14.52;;
67528;SDS011;54366;51.980;5.856;2023-11-18T03:35:05;21.17;;;14.60;;
67528;SDS011;54366;51.980;5.856;2023-11-18T03:37:38;21.13;;;15.38;;
67528;SDS011;54366;51.980;5.856;2023-11-18T03:40:10;22.98;;;15.57;;
67528;SDS011;54366;51.980;5.856;2023-11-18T03:42:38;20.38;;;14.93;;
67528;SDS011;54366;51.980;5.856;2023-11-18T03:45:05;19.17;;;13.88;;
67528;SDS011;54366;51.980;5.856;2023-11-18T03:47:32;18.08;;;13.50;;
67528;SDS011;54366;51.980;5.856;2023-11-18T03:49:59;17.08;;;12.95;;
67528;SDS011;54366;51.980;5.856;2023-11-18T03:52:26;17.50;;;13.32;;
67528;SDS011;54366;51.980;5.856;2023-11-18T03:54:53;21.25;;;15.20;;
67528;SDS011;54366;51.980;5.856;2023-11-18T03:57:22;19.20;;;14.32;;
67528;SDS011;54366;51.980;5.856;2023-11-18T03:59:49;18.80;;;14.18;;
67528;SDS011;54366;51.980;5.856;2023-11-18T04:02:16;30.50;;;19.23;;
67528;SDS011;54366;51.980;5.856;2023-11-18T04:04:42;20.35;;;16.23;;
67528;SDS011;54366;51.980;5.856;2023-11-18T04:07:08;20.83;;;15.10;;
67528;SDS011;54366;51.980;5.856;2023-11-18T04:09:35;20.48;;;15.20;;
67528;SDS011;54366;51.980;5.856;2023-11-18T04:14:27;18.27;;;14.15;;
67528;SDS011;54366;51.980;5.856;2023-11-18T04:16:54;20.65;;;15.15;;
67528;SDS011;54366;51.980;5.856;2023-11-18T04:19:21;21.52;;;15.65;;
67528;SDS011;54366;51.980;5.856;2023-11-18T04:21:47;19.95;;;14.02;;
67528;SDS011;54366;51.980;5.856;2023-11-18T04:24:14;22.55;;;16.58;;
67528;SDS011;54366;51.980;5.856;2023-11-18T04:26:41;20.88;;;15.15;;
67528;SDS011;54366;51.980;5.856;2023-11-18T04:29:07;16.80;;;12.95;;
67528;SDS011;54366;51.980;5.856;2023-11-18T04:31:34;17.77;;;12.55;;
67528;SDS011;54366;51.980;5.856;2023-11-18T04:34:02;21.67;;;14.82;;
67528;SDS011;54366;51.980;5.856;2023-11-18T04:36:29;17.48;;;13.85;;
67528;SDS011;54366;51.980;5.856;2023-11-18T04:38:57;19.65;;;15.05;;
67528;SDS011;54366;51.980;5.856;2023-11-18T04:41:23;21.35;;;15.15;;
67528;SDS011;54366;51.980;5.856;2023-11-18T04:43:49;19.95;;;14.68;;
67528;SDS011;54366;51.980;5.856;2023-11-18T04:46:16;19.83;;;14.55;;
67528;SDS011;54366;51.980;5.856;2023-11-18T04:48:42;20.63;;;14.10;;
67528;SDS011;54366;51.980;5.856;2023-11-18T04:51:09;20.48;;;14.95;;
67528;SDS011;54366;51.980;5.856;2023-11-18T04:53:37;27.67;;;18.75;;
67528;SDS011;54366;51.980;5.856;2023-11-18T04:56:04;23.92;;;17.95;;
67528;SDS011;54366;51.980;5.856;2023-11-18T04:58:37;24.63;;;18.25;;
67528;SDS011;54366;51.980;5.856;2023-11-18T05:01:05;23.98;;;17.35;;
67528;SDS011;54366;51.980;5.856;2023-11-18T05:03:32;22.48;;;16.30;;
67528;SDS011;54366;51.980;5.856;2023-11-18T05:05:58;29.08;;;20.95;;
67528;SDS011;54366;51.980;5.856;2023-11-18T05:08:24;23.40;;;17.40;;
67528;SDS011;54366;51.980;5.856;2023-11-18T05:10:51;21.60;;;16.00;;
67528;SDS011;54366;51.980;5.856;2023-11-18T05:13:17;20.85;;;15.63;;
67528;SDS011;54366;51.980;5.856;2023-11-18T05:15:45;19.80;;;15.70;;
67528;SDS011;54366;51.980;5.856;2023-11-18T05:18:12;19.70;;;14.60;;
67528;SDS011;54366;51.980;5.856;2023-11-18T05:20:42;23.50;;;17.30;;
67528;SDS011;54366;51.980;5.856;2023-11-18T05:23:09;18.75;;;14.15;;
67528;SDS011;54366;51.980;5.856;2023-11-18T05:25:38;22.50;;;16.27;;
67528;SDS011;54366;51.980;5.856;2023-11-18T05:28:06;19.88;;;14.98;;
67528;SDS011;54366;51.980;5.856;2023-11-18T05:30:35;21.10;;;15.93;;
67528;SDS011;54366;51.980;5.856;2023-11-18T05:33:05;19.23;;;15.07;;
67528;SDS011;54366;51.980;5.856;2023-11-18T05:35:32;31.33;;;21.13;;
67528;SDS011;54366;51.980;5.856;2023-11-18T05:37:59;21.38;;;16.33;;
67528;SDS011;54366;51.980;5.856;2023-11-18T05:40:31;20.85;;;15.68;;
67528;SDS011;54366;51.980;5.856;2023-11-18T05:42:58;21.00;;;16.73;;
67528;SDS011;54366;51.980;5.856;2023-11-18T05:45:24;19.90;;;15.35;;
67528;SDS011;54366;51.980;5.856;2023-11-18T05:47:56;24.02;;;18.27;;
67528;SDS011;54366;51.980;5.856;2023-11-18T05:50:23;21.73;;;15.85;;
67528;SDS011;54366;51.980;5.856;2023-11-18T05:52:53;20.23;;;15.48;;
67528;SDS011;54366;51.980;5.856;2023-11-18T05:55:19;23.02;;;16.50;;
67528;SDS011;54366;51.980;5.856;2023-11-18T05:57:46;25.35;;;19.40;;
67528;SDS011;54366;51.980;5.856;2023-11-18T06:00:13;25.67;;;18.67;;
67528;SDS011;54366;51.980;5.856;2023-11-18T06:02:45;23.08;;;17.50;;
67528;SDS011;54366;51.980;5.856;2023-11-18T06:05:11;25.02;;;20.15;;
67528;SDS011;54366;51.980;5.856;2023-11-18T06:07:38;25.05;;;19.35;;
67528;SDS011;54366;51.980;5.856;2023-11-18T06:10:08;21.52;;;17.25;;
67528;SDS011;54366;51.980;5.856;2023-11-18T06:12:35;33.47;;;24.58;;
67528;SDS011;54366;51.980;5.856;2023-11-18T06:15:03;24.23;;;18.73;;
67528;SDS011;54366;51.980;5.856;2023-11-18T06:17:29;22.25;;;18.23;;
67528;SDS011;54366;51.980;5.856;2023-11-18T06:19:56;24.30;;;19.10;;
67528;SDS011;54366;51.980;5.856;2023-11-18T06:22:22;24.10;;;18.42;;
67528;SDS011;54366;51.980;5.856;2023-11-18T06:24:48;25.55;;;19.52;;
67528;SDS011;54366;51.980;5.856;2023-11-18T06:27:15;23.25;;;18.60;;
67528;SDS011;54366;51.980;5.856;2023-11-18T06:29:43;22.30;;;18.17;;
67528;SDS011;54366;51.980;5.856;2023-11-18T06:32:10;21.35;;;16.92;;
67528;SDS011;54366;51.980;5.856;2023-11-18T06:34:38;22.80;;;17.17;;
67528;SDS011;54366;51.980;5.856;2023-11-18T06:37:04;21.48;;;15.75;;
67528;SDS011;54366;51.980;5.856;2023-11-18T06:39:31;25.08;;;18.52;;
67528;SDS011;54366;51.980;5.856;2023-11-18T06:42:00;21.33;;;16.15;;
67528;SDS011;54366;51.980;5.856;2023-11-18T06:44:30;21.83;;;16.00;;
67528;SDS011;54366;51.980;5.856;2023-11-18T06:46:56;26.20;;;19.05;;
67528;SDS011;54366;51.980;5.856;2023-11-18T06:49:23;28.80;;;21.42;;
67528;SDS011;54366;51.980;5.856;2023-11-18T06:51:51;20.95;;;17.50;;
67528;SDS011;54366;51.980;5.856;2023-11-18T06:54:18;22.02;;;17.27;;
67528;SDS011;54366;51.980;5.856;2023-11-18T06:56:44;21.92;;;17.40;;
67528;SDS011;54366;51.980;5.856;2023-11-18T06:59:12;22.92;;;18.60;;
67528;SDS011;54366;51.980;5.856;2023-11-18T07:01:39;22.30;;;17.92;;
67528;SDS011;54366;51.980;5.856;2023-11-18T07:04:08;22.10;;;18.30;;
67528;SDS011;54366;51.980;5.856;2023-11-18T07:06:34;21.17;;;16.38;;
67528;SDS011;54366;51.980;5.856;2023-11-18T07:09:04;16.75;;;14.60;;
67528;SDS011;54366;51.980;5.856;2023-11-18T07:14:07;17.58;;;14.73;;
67528;SDS011;54366;51.980;5.856;2023-11-18T07:16:35;17.65;;;14.25;;
67528;SDS011;54366;51.980;5.856;2023-11-18T07:19:01;19.55;;;14.95;;
67528;SDS011;54366;51.980;5.856;2023-11-18T07:21:30;16.75;;;13.88;;
67528;SDS011;54366;51.980;5.856;2023-11-18T07:23:57;16.90;;;13.27;;
67528;SDS011;54366;51.980;5.856;2023-11-18T07:26:23;13.80;;;11.68;;
67528;SDS011;54366;51.980;5.856;2023-11-18T07:28:49;14.32;;;12.70;;
67528;SDS011;54366;51.980;5.856;2023-11-18T07:31:17;15.52;;;12.82;;
67528;SDS011;54366;51.980;5.856;2023-11-18T07:33:44;19.60;;;14.32;;
67528;SDS011;54366;51.980;5.856;2023-11-18T07:36:15;15.32;;;13.02;;
67528;SDS011;54366;51.980;5.856;2023-11-18T07:38:46;14.93;;;12.00;;
67528;SDS011;54366;51.980;5.856;2023-11-18T07:41:12;12.88;;;11.05;;
67528;SDS011;54366;51.980;5.856;2023-11-18T07:43:53;11.38;;;9.93;;
67528;SDS011;54366;51.980;5.856;2023-11-18T07:46:27;12.20;;;9.48;;
67528;SDS011;54366;51.980;5.856;2023-11-18T07:48:56;14.10;;;10.63;;
67528;SDS011;54366;51.980;5.856;2023-11-18T07:51:22;14.65;;;11.80;;
67528;SDS011;54366;51.980;5.856;2023-11-18T07:53:49;11.43;;;10.15;;
67528;SDS011;54366;51.980;5.856;2023-11-18T07:56:15;12.70;;;10.52;;
67528;SDS011;54366;51.980;5.856;2023-11-18T07:58:42;15.93;;;12.15;;
67528;SDS011;54366;51.980;5.856;2023-11-18T08:01:11;14.30;;;11.80;;
67528;SDS011;54366;51.980;5.856;2023-11-18T08:03:38;15.23;;;12.25;;
67528;SDS011;54366;51.980;5.856;2023-11-18T08:06:07;14.15;;;10.98;;
67528;SDS011;54366;51.980;5.856;2023-11-18T08:08:34;11.68;;;10.43;;
67528;SDS011;54366;51.980;5.856;2023-11-18T08:11:02;12.60;;;10.07;;
67528;SDS011;54366;51.980;5.856;2023-11-18T08:13:30;11.13;;;9.80;;
67528;SDS011;54366;51.980;5.856;2023-11-18T08:15:56;10.23;;;8.73;;
67528;SDS011;54366;51.980;5.856;2023-11-18T08:18:25;12.38;;;10.63;;
67528;SDS011;54366;51.980;5.856;2023-11-18T08:20:53;13.90;;;10.88;;
67528;SDS011;54366;51.980;5.856;2023-11-18T08:23:19;11.50;;;9.20;;
67528;SDS011;54366;51.980;5.856;2023-11-18T08:25:45;11.07;;;9.85;;
67528;SDS011;54366;51.980;5.856;2023-11-18T08:28:12;12.90;;;9.88;;
67528;SDS011;54366;51.980;5.856;2023-11-18T08:30:39;10.90;;;9.10;;
67528;SDS011;54366;51.980;5.856;2023-11-18T08:33:05;12.02;;;10.13;;
67528;SDS011;54366;51.980;5.856;2023-11-18T08:35:35;14.98;;;12.20;;
67528;SDS011;54366;51.980;5.856;2023-11-18T08:38:02;13.38;;;11.13;;
67528;SDS011;54366;51.980;5.856;2023-11-18T08:40:30;13.38;;;10.27;;
67528;SDS011;54366;51.980;5.856;2023-11-18T08:42:56;13.00;;;10.95;;
67528;SDS011;54366;51.980;5.856;2023-11-18T08:45:24;15.23;;;10.40;;
67528;SDS011;54366;51.980;5.856;2023-11-18T08:47:55;13.18;;;10.90;;
67528;SDS011;54366;51.980;5.856;2023-11-18T08:50:22;13.05;;;11.02;;
67528;SDS011;54366;51.980;5.856;2023-11-18T08:52:52;14.65;;;11.35;;
67528;SDS011;54366;51.980;5.856;2023-11-18T08:55:24;12.68;;;10.10;;
67528;SDS011;54366;51.980;5.856;2023-11-18T08:58:07;11.98;;;9.77;;
67528;SDS011;54366;51.980;5.856;2023-11-18T09:00:53;14.48;;;10.65;;
67528;SDS011;54366;51.980;5.856;2023-11-18T09:03:52;12.93;;;10.45;;
67528;SDS011;54366;51.980;5.856;2023-11-18T09:06:19;15.68;;;11.05;;
67528;SDS011;54366;51.980;5.856;2023-11-18T09:08:54;12.85;;;9.93;;
67528;SDS011;54366;51.980;5.856;2023-11-18T09:11:23;13.80;;;10.48;;
67528;SDS011;54366;51.980;5.856;2023-11-18T09:13:54;13.32;;;9.90;;
67528;SDS011;54366;51.980;5.856;2023-11-18T09:16:23;13.88;;;10.25;;
67528;SDS011;54366;51.980;5.856;2023-11-18T09:18:52;18.73;;;12.98;;
67528;SDS011;54366;51.980;5.856;2023-11-18T09:21:19;14.77;;;11.30;;
67528;SDS011;54366;51.980;5.856;2023-11-18T09:23:48;16.02;;;10.75;;
67528;SDS011;54366;51.980;5.856;2023-11-18T09:26:15;12.18;;;9.40;;
67528;SDS011;54366;51.980;5.856;2023-11-18T09:28:42;14.10;;;9.65;;
67528;SDS011;54366;51.980;5.856;2023-11-18T09:31:11;16.08;;;11.10;;
67528;SDS011;54366;51.980;5.856;2023-11-18T09:33:39;16.38;;;11.10;;
67528;SDS011;54366;51.980;5.856;2023-11-18T09:36:10;15.00;;;10.35;;
67528;SDS011;54366;51.980;5.856;2023-11-18T09:38:38;16.25;;;11.43;;
67528;SDS011;54366;51.980;5.856;2023-11-18T09:41:07;17.13;;;11.50;;
67528;SDS011;54366;51.980;5.856;2023-11-18T09:43:37;14.23;;;10.23;;
67528;SDS011;54366;51.980;5.856;2023-11-18T09:46:14;14.00;;;9.90;;
67528;SDS011;54366;51.980;5.856;2023-11-18T09:48:42;17.67;;;12.05;;
67528;SDS011;54366;51.980;5.856;2023-11-18T09:51:26;18.33;;;11.57;;
67528;SDS011;54366;51.980;5.856;2023-11-18T09:53:59;20.33;;;13.68;;
67528;SDS011;54366;51.980;5.856;2023-11-18T09:57:16;18.20;;;11.75;;
67528;SDS011;54366;51.980;5.856;2023-11-18T10:02:53;19.60;;;12.90;;
67528;SDS011;54366;51.980;5.856;2023-11-18T10:05:22;18.65;;;12.50;;
67528;SDS011;54366;51.980;5.856;2023-11-18T10:07:52;20.58;;;13.38;;
67528;SDS011;54366;51.980;5.856;2023-11-18T10:10:21;20.67;;;12.88;;
67528;SDS011;54366;51.980;5.856;2023-11-18T10:12:48;17.77;;;11.70;;
67528;SDS011;54366;51.980;5.856;2023-11-18T10:15:19;16.52;;;11.48;;
67528;SDS011;54366;51.980;5.856;2023-11-18T10:17:51;14.40;;;10.25;;
67528;SDS011;54366;51.980;5.856;2023-11-18T10:20:47;18.05;;;11.15;;
67528;SDS011;54366;51.980;5.856;2023-11-18T10:23:17;12.68;;;9.38;;
67528;SDS011;54366;51.980;5.856;2023-11-18T10:25:48;13.82;;;9.25;;
67528;SDS011;54366;51.980;5.856;2023-11-18T10:28:28;13.70;;;9.48;;
67528;SDS011;54366;51.980;5.856;2023-11-18T10:30:59;14.68;;;8.85;;
67528;SDS011;54366;51.980;5.856;2023-11-18T10:33:30;10.48;;;7.35;;
67528;SDS011;54366;51.980;5.856;2023-11-18T10:35:57;13.70;;;9.25;;
67528;SDS011;54366;51.980;5.856;2023-11-18T10:38:32;10.45;;;8.02;;
67528;SDS011;54366;51.980;5.856;2023-11-18T10:41:05;12.32;;;8.27;;
67528;SDS011;54366;51.980;5.856;2023-11-18T10:43:32;10.75;;;7.53;;
67528;SDS011;54366;51.980;5.856;2023-11-18T10:46:07;11.68;;;7.80;;
67528;SDS011;54366;51.980;5.856;2023-11-18T10:48:41;11.23;;;7.95;;
67528;SDS011;54366;51.980;5.856;2023-11-18T10:51:14;14.90;;;9.57;;
67528;SDS011;54366;51.980;5.856;2023-11-18T10:53:42;10.52;;;7.43;;
67528;SDS011;54366;51.980;5.856;2023-11-18T10:56:19;10.77;;;7.70;;
67528;SDS011;54366;51.980;5.856;2023-11-18T10:58:55;12.70;;;8.60;;
67528;SDS011;54366;51.980;5.856;2023-11-18T11:01:27;12.38;;;8.65;;
67528;SDS011;54366;51.980;5.856;2023-11-18T11:04:00;11.77;;;7.68;;
67528;SDS011;54366;51.980;5.856;2023-11-18T11:06:30;11.63;;;7.10;;
67528;SDS011;54366;51.980;5.856;2023-11-18T11:08:57;11.18;;;6.90;;
67528;SDS011;54366;51.980;5.856;2023-11-18T11:11:24;9.52;;;5.95;;
67528;SDS011;54366;51.980;5.856;2023-11-18T11:13:56;9.82;;;6.60;;
67528;SDS011;54366;51.980;5.856;2023-11-18T11:16:41;12.50;;;7.03;;
67528;SDS011;54366;51.980;5.856;2023-11-18T11:19:15;10.82;;;6.35;;
67528;SDS011;54366;51.980;5.856;2023-11-18T11:22:10;8.23;;;5.88;;
67528;SDS011;54366;51.980;5.856;2023-11-18T11:25:07;13.52;;;7.50;;
67528;SDS011;54366;51.980;5.856;2023-11-18T11:27:55;10.77;;;7.00;;
67528;SDS011;54366;51.980;5.856;2023-11-18T11:30:40;10.48;;;6.38;;
67528;SDS011;54366;51.980;5.856;2023-11-18T11:36:12;9.15;;;6.45;;
67528;SDS011;54366;51.980;5.856;2023-11-18T11:38:43;11.63;;;7.53;;
67528;SDS011;54366;51.980;5.856;2023-11-18T11:41:12;11.60;;;8.00;;
67528;SDS011;54366;51.980;5.856;2023-11-18T11:43:48;12.52;;;8.00;;
67528;SDS011;54366;51.980;5.856;2023-11-18T11:46:15;9.48;;;6.43;;
67528;SDS011;54366;51.980;5.856;2023-11-18T11:48:51;10.90;;;7.32;;
67528;SDS011;54366;51.980;5.856;2023-11-18T11:51:30;12.20;;;8.55;;
67528;SDS011;54366;51.980;5.856;2023-11-18T11:54:12;11.80;;;7.82;;
67528;SDS011;54366;51.980;5.856;2023-11-18T11:56:45;9.98;;;7.20;;
67528;SDS011;54366;51.980;5.856;2023-11-18T11:59:53;10.93;;;7.40;;
67528;SDS011;54366;51.980;5.856;2023-11-18T12:02:25;8.50;;;6.35;;
67528;SDS011;54366;51.980;5.856;2023-11-18T12:04:55;8.52;;;6.05;;
67528;SDS011;54366;51.980;5.856;2023-11-18T12:07:27;11.77;;;7.15;;
67528;SDS011;54366;51.980;5.856;2023-11-18T12:09:56;9.82;;;7.18;;
67528;SDS011;54366;51.980;5.856;2023-11-18T12:12:25;10.57;;;7.20;;
67528;SDS011;54366;51.980;5.856;2023-11-18T12:14:58;11.23;;;7.60;;
67528;SDS011;54366;51.980;5.856;2023-11-18T12:20:44;10.68;;;6.80;;
67528;SDS011;54366;51.980;5.856;2023-11-18T12:23:15;9.68;;;6.80;;
67528;SDS011;54366;51.980;5.856;2023-11-18T12:25:44;10.07;;;6.65;;
67528;SDS011;54366;51.980;5.856;2023-11-18T12:28:32;10.20;;;6.80;;
67528;SDS011;54366;51.980;5.856;2023-11-18T12:31:03;9.52;;;6.32;;
67528;SDS011;54366;51.980;5.856;2023-11-18T12:36:39;10.55;;;5.93;;
67528;SDS011;54366;51.980;5.856;2023-11-18T12:42:59;9.05;;;6.13;;
67528;SDS011;54366;51.980;5.856;2023-11-18T12:46:11;8.88;;;6.47;;
67528;SDS011;54366;51.980;5.856;2023-11-18T12:48:25;8.88;;;5.63;;
67528;SDS011;54366;51.980;5.856;2023-11-18T12:50:58;9.02;;;5.60;;
67528;SDS011;54366;51.980;5.856;2023-11-18T12:53:27;7.05;;;5.00;;
67528;SDS011;54366;51.980;5.856;2023-11-18T12:55:54;8.15;;;5.25;;
67528;SDS011;54366;51.980;5.856;2023-11-18T12:58:22;7.18;;;4.50;;
67528;SDS011;54366;51.980;5.856;2023-11-18T13:00:49;8.02;;;4.78;;
67528;SDS011;54366;51.980;5.856;2023-11-18T13:03:18;6.10;;;4.45;;
67528;SDS011;54366;51.980;5.856;2023-11-18T13:05:44;9.35;;;5.05;;
67528;SDS011;54366;51.980;5.856;2023-11-18T13:08:11;9.63;;;4.97;;
67528;SDS011;54366;51.980;5.856;2023-11-18T13:10:41;5.97;;;4.50;;
67528;SDS011;54366;51.980;5.856;2023-11-18T13:13:07;5.97;;;4.05;;
67528;SDS011;54366;51.980;5.856;2023-11-18T13:15:34;7.97;;;5.10;;
67528;SDS011;54366;51.980;5.856;2023-11-18T13:18:02;9.85;;;4.93;;
67528;SDS011;54366;51.980;5.856;2023-11-18T13:20:33;8.05;;;4.50;;
67528;SDS011;54366;51.980;5.856;2023-11-18T13:23:03;5.97;;;3.80;;
67528;SDS011;54366;51.980;5.856;2023-11-18T13:25:35;7.57;;;4.07;;
67528;SDS011;54366;51.980;5.856;2023-11-18T13:28:04;6.78;;;4.47;;
67528;SDS011;54366;51.980;5.856;2023-11-18T13:30:31;4.53;;;3.22;;
67528;SDS011;54366;51.980;5.856;2023-11-18T13:32:58;7.57;;;3.85;;
67528;SDS011;54366;51.980;5.856;2023-11-18T13:35:27;6.15;;;3.70;;
67528;SDS011;54366;51.980;5.856;2023-11-18T13:37:53;4.43;;;3.40;;
67528;SDS011;54366;51.980;5.856;2023-11-18T13:40:20;5.15;;;3.10;;
67528;SDS011;54366;51.980;5.856;2023-11-18T13:42:46;6.57;;;3.67;;
67528;SDS011;54366;51.980;5.856;2023-11-18T13:45:13;6.13;;;3.58;;
67528;SDS011;54366;51.980;5.856;2023-11-18T13:47:51;3.58;;;2.88;;
67528;SDS011;54366;51.980;5.856;2023-11-18T13:50:18;5.18;;;3.13;;
67528;SDS011;54366;51.980;5.856;2023-11-18T13:52:45;5.03;;;3.58;;
67528;SDS011;54366;51.980;5.856;2023-11-18T13:55:15;5.65;;;3.00;;
67528;SDS011;54366;51.980;5.856;2023-11-18T13:57:57;5.47;;;3.40;;
67528;SDS011;54366;51.980;5.856;2023-11-18T14:00:25;5.22;;;3.40;;
67528;SDS011;54366;51.980;5.856;2023-11-18T14:02:58;4.10;;;3.22;;
67528;SDS011;54366;51.980;5.856;2023-11-18T14:05:25;3.70;;;2.72;;
67528;SDS011;54366;51.980;5.856;2023-11-18T14:07:51;4.13;;;2.55;;
67528;SDS011;54366;51.980;5.856;2023-11-18T14:10:21;3.47;;;2.50;;
67528;SDS011;54366;51.980;5.856;2023-11-18T14:13:03;3.88;;;2.75;;
67528;SDS011;54366;51.980;5.856;2023-11-18T14:15:34;5.35;;;2.65;;
67528;SDS011;54366;51.980;5.856;2023-11-18T14:18:02;3.10;;;2.40;;
67528;SDS011;54366;51.980;5.856;2023-11-18T14:20:33;3.42;;;2.28;;
67528;SDS011;54366;51.980;5.856;2023-11-18T14:23:01;2.50;;;1.70;;
67528;SDS011;54366;51.980;5.856;2023-11-18T14:25:29;3.58;;;2.40;;
67528;SDS011;54366;51.980;5.856;2023-11-18T14:27:57;2.90;;;2.30;;
67528;SDS011;54366;51.980;5.856;2023-11-18T14:30:24;2.72;;;1.70;;
67528;SDS011;54366;51.980;5.856;2023-11-18T14:32:51;2.17;;;1.80;;
67528;SDS011;54366;51.980;5.856;2023-11-18T14:35:18;3.05;;;1.63;;
67528;SDS011;54366;51.980;5.856;2023-11-18T14:37:44;2.47;;;1.88;;
67528;SDS011;54366;51.980;5.856;2023-11-18T14:40:11;2.72;;;2.33;;
67528;SDS011;54366;51.980;5.856;2023-11-18T14:42:46;3.35;;;2.97;;
67528;SDS011;54366;51.980;5.856;2023-11-18T14:45:14;2.60;;;2.38;;
67528;SDS011;54366;51.980;5.856;2023-11-18T14:47:41;2.22;;;1.80;;
67528;SDS011;54366;51.980;5.856;2023-11-18T14:50:13;3.08;;;1.70;;
67528;SDS011;54366;51.980;5.856;2023-11-18T14:52:46;1.73;;;1.27;;
67528;SDS011;54366;51.980;5.856;2023-11-18T14:55:14;1.63;;;0.95;;
67528;SDS011;54366;51.980;5.856;2023-11-18T14:57:43;2.28;;;1.20;;
67528;SDS011;54366;51.980;5.856;2023-11-18T15:00:10;1.70;;;1.20;;
67528;SDS011;54366;51.980;5.856;2023-11-18T15:02:45;1.00;;;0.90;;
67528;SDS011;54366;51.980;5.856;2023-11-18T15:05:13;1.80;;;1.30;;
67528;SDS011;54366;51.980;5.856;2023-11-18T15:07:51;2.50;;;1.48;;